International Virtual Aviation Organisation

Russian Federation and Kazakhstan MCD

 
UASS 060930Z 02008MPS 350V050 CAVOK 31/08 Q1011 R08/0///60 NOSIG RMK QFE738/0984
QNH:(hPa/inHg/mmHg)1011 / 29.85 / 758
QFE:(hPa/inHg/mmHg)983 / 29.02 / 737
Temperature31
Dew Point8
Visibility> 10000
WeatherCAVOK
Cloud Cover
Transition Height1133 m./4500 ft.
Transition LevelFL70
SQUAWK